ENAT/ALF METAR and TAF weather

Enter ICAO airport designator
Station Type Date Time Source
ENAT METAR 2019/10/16 18:50 UTC NOAA

ENAT 161850Z 20004KT 160V240 CAVOK M04/M07 Q1019 RMK WIND 700FT 18010KT


Station Type Date Time Source
ENAT Decoded METAR 2019/10/16 18:50 UTC NOAA

Alta Lufthavn, Norway (ENAT) 69-59N 023-22E 3M
Oct 16, 2019 - 02:50 PM EDT / 2019.10.16 1850 UTC
Wind: from the SSW (200 degrees) at 5 MPH (4 KT) (direction variable):0
Visibility: greater than 7 mile(s):0
Temperature: 24 F (-4 C)
Windchill: 17 F (-8 C):1
Dew Point: 19 F (-7 C)
Relative Humidity: 79%
Pressure (altimeter): 30.09 in. Hg (1019 hPa)
ob: ENAT 161850Z 20004KT 160V240 CAVOK M04/M07 Q1019 RMK WIND 700FT 18010KT
cycle: 19

Station Type Date Time Source
ENAT TAF 2008/11/30 23:00 UTC NOAA

TAF TAF ENAT 302300Z 3023/0102 22005KT 7000 -SN FEW008 BKN020
TEMPO 3023/0102 3000 -SN VV012

Example: see airport list